sensor_id;sensor_type;location;lat;lon;timestamp;P1;durP1;ratioP1;P2;durP2;ratioP2
18338;SDS011;9295;44.484;11.240;2022-10-16T00:01:38;17.33;;;10.00;;
18338;SDS011;9295;44.484;11.240;2022-10-16T00:04:07;14.03;;;9.33;;
18338;SDS011;9295;44.484;11.240;2022-10-16T00:06:36;14.00;;;8.97;;
18338;SDS011;9295;44.484;11.240;2022-10-16T00:09:05;13.67;;;9.10;;
18338;SDS011;9295;44.484;11.240;2022-10-16T00:11:35;15.30;;;9.43;;
18338;SDS011;9295;44.484;11.240;2022-10-16T00:14:07;16.77;;;9.63;;
18338;SDS011;9295;44.484;11.240;2022-10-16T00:16:39;16.80;;;9.90;;
18338;SDS011;9295;44.484;11.240;2022-10-16T00:19:08;11.97;;;9.67;;
18338;SDS011;9295;44.484;11.240;2022-10-16T00:21:38;11.13;;;9.03;;
18338;SDS011;9295;44.484;11.240;2022-10-16T00:24:25;19.00;;;9.40;;
18338;SDS011;9295;44.484;11.240;2022-10-16T00:26:53;14.73;;;9.00;;
18338;SDS011;9295;44.484;11.240;2022-10-16T00:29:22;18.40;;;10.00;;
18338;SDS011;9295;44.484;11.240;2022-10-16T00:31:51;15.80;;;9.80;;
18338;SDS011;9295;44.484;11.240;2022-10-16T00:34:20;16.53;;;10.13;;
18338;SDS011;9295;44.484;11.240;2022-10-16T00:36:48;15.70;;;8.90;;
18338;SDS011;9295;44.484;11.240;2022-10-16T00:39:16;18.40;;;9.67;;
18338;SDS011;9295;44.484;11.240;2022-10-16T00:41:45;16.13;;;9.13;;
18338;SDS011;9295;44.484;11.240;2022-10-16T00:47:15;14.57;;;8.87;;
18338;SDS011;9295;44.484;11.240;2022-10-16T00:49:47;13.03;;;9.03;;
18338;SDS011;9295;44.484;11.240;2022-10-16T00:52:18;16.53;;;9.30;;
18338;SDS011;9295;44.484;11.240;2022-10-16T00:54:47;11.00;;;8.77;;
18338;SDS011;9295;44.484;11.240;2022-10-16T00:57:17;12.30;;;8.10;;
18338;SDS011;9295;44.484;11.240;2022-10-16T00:59:46;13.57;;;9.23;;
18338;SDS011;9295;44.484;11.240;2022-10-16T01:02:16;14.50;;;9.30;;
18338;SDS011;9295;44.484;11.240;2022-10-16T01:04:46;13.90;;;8.33;;
18338;SDS011;9295;44.484;11.240;2022-10-16T01:07:20;14.60;;;8.30;;
18338;SDS011;9295;44.484;11.240;2022-10-16T01:10:06;10.97;;;8.77;;
18338;SDS011;9295;44.484;11.240;2022-10-16T01:12:40;16.20;;;8.87;;
18338;SDS011;9295;44.484;11.240;2022-10-16T01:15:15;14.90;;;9.10;;
18338;SDS011;9295;44.484;11.240;2022-10-16T01:17:51;13.23;;;9.30;;
18338;SDS011;9295;44.484;11.240;2022-10-16T01:20:26;18.07;;;9.20;;
18338;SDS011;9295;44.484;11.240;2022-10-16T01:25:52;15.23;;;9.30;;
18338;SDS011;9295;44.484;11.240;2022-10-16T01:28:36;20.43;;;9.80;;
18338;SDS011;9295;44.484;11.240;2022-10-16T01:31:09;15.97;;;10.70;;
18338;SDS011;9295;44.484;11.240;2022-10-16T01:33:43;14.07;;;10.07;;
18338;SDS011;9295;44.484;11.240;2022-10-16T01:36:15;14.27;;;9.63;;
18338;SDS011;9295;44.484;11.240;2022-10-16T01:38:49;14.23;;;9.27;;
18338;SDS011;9295;44.484;11.240;2022-10-16T01:41:21;12.67;;;9.43;;
18338;SDS011;9295;44.484;11.240;2022-10-16T01:43:57;14.83;;;9.13;;
18338;SDS011;9295;44.484;11.240;2022-10-16T01:46:30;13.00;;;9.00;;
18338;SDS011;9295;44.484;11.240;2022-10-16T01:49:00;14.60;;;8.97;;
18338;SDS011;9295;44.484;11.240;2022-10-16T01:51:30;14.20;;;9.47;;
18338;SDS011;9295;44.484;11.240;2022-10-16T01:54:01;13.30;;;8.57;;
18338;SDS011;9295;44.484;11.240;2022-10-16T01:56:32;14.73;;;9.60;;
18338;SDS011;9295;44.484;11.240;2022-10-16T01:59:04;12.10;;;8.20;;
18338;SDS011;9295;44.484;11.240;2022-10-16T02:01:38;14.73;;;8.37;;
18338;SDS011;9295;44.484;11.240;2022-10-16T02:04:11;15.70;;;9.47;;
18338;SDS011;9295;44.484;11.240;2022-10-16T02:06:44;11.30;;;8.80;;
18338;SDS011;9295;44.484;11.240;2022-10-16T02:09:13;17.13;;;9.63;;
18338;SDS011;9295;44.484;11.240;2022-10-16T02:11:43;18.27;;;10.00;;
18338;SDS011;9295;44.484;11.240;2022-10-16T02:14:13;15.50;;;9.00;;
18338;SDS011;9295;44.484;11.240;2022-10-16T02:16:43;11.00;;;8.73;;
18338;SDS011;9295;44.484;11.240;2022-10-16T02:19:13;13.10;;;8.73;;
18338;SDS011;9295;44.484;11.240;2022-10-16T02:21:47;18.60;;;9.70;;
18338;SDS011;9295;44.484;11.240;2022-10-16T02:24:19;15.13;;;10.10;;
18338;SDS011;9295;44.484;11.240;2022-10-16T02:26:55;13.73;;;9.30;;
18338;SDS011;9295;44.484;11.240;2022-10-16T02:29:30;18.50;;;9.50;;
18338;SDS011;9295;44.484;11.240;2022-10-16T02:32:01;18.33;;;9.27;;
18338;SDS011;9295;44.484;11.240;2022-10-16T02:34:32;17.60;;;10.00;;
18338;SDS011;9295;44.484;11.240;2022-10-16T02:37:01;13.10;;;8.83;;
18338;SDS011;9295;44.484;11.240;2022-10-16T02:39:33;16.13;;;9.10;;
18338;SDS011;9295;44.484;11.240;2022-10-16T02:42:02;12.90;;;10.10;;
18338;SDS011;9295;44.484;11.240;2022-10-16T02:44:32;12.30;;;9.00;;
18338;SDS011;9295;44.484;11.240;2022-10-16T02:47:00;15.47;;;9.50;;
18338;SDS011;9295;44.484;11.240;2022-10-16T02:49:29;13.17;;;9.67;;
18338;SDS011;9295;44.484;11.240;2022-10-16T02:51:57;11.40;;;9.27;;
18338;SDS011;9295;44.484;11.240;2022-10-16T02:54:25;16.40;;;9.70;;
18338;SDS011;9295;44.484;11.240;2022-10-16T02:56:54;16.97;;;10.70;;
18338;SDS011;9295;44.484;11.240;2022-10-16T02:59:22;16.60;;;10.60;;
18338;SDS011;9295;44.484;11.240;2022-10-16T03:01:52;14.00;;;10.30;;
18338;SDS011;9295;44.484;11.240;2022-10-16T03:04:20;16.63;;;11.30;;
18338;SDS011;9295;44.484;11.240;2022-10-16T03:06:48;22.67;;;11.70;;
18338;SDS011;9295;44.484;11.240;2022-10-16T03:09:17;20.73;;;11.43;;
18338;SDS011;9295;44.484;11.240;2022-10-16T03:11:45;17.40;;;12.53;;
18338;SDS011;9295;44.484;11.240;2022-10-16T03:14:14;22.67;;;13.07;;
18338;SDS011;9295;44.484;11.240;2022-10-16T03:16:42;17.77;;;12.00;;
18338;SDS011;9295;44.484;11.240;2022-10-16T03:19:12;20.07;;;13.37;;
18338;SDS011;9295;44.484;11.240;2022-10-16T03:21:40;17.70;;;12.93;;
18338;SDS011;9295;44.484;11.240;2022-10-16T03:24:09;20.17;;;14.80;;
18338;SDS011;9295;44.484;11.240;2022-10-16T03:26:37;22.97;;;14.37;;
18338;SDS011;9295;44.484;11.240;2022-10-16T03:29:06;19.47;;;14.07;;
18338;SDS011;9295;44.484;11.240;2022-10-16T03:31:34;20.90;;;14.63;;
18338;SDS011;9295;44.484;11.240;2022-10-16T03:34:03;21.50;;;13.70;;
18338;SDS011;9295;44.484;11.240;2022-10-16T03:36:32;24.70;;;15.80;;
18338;SDS011;9295;44.484;11.240;2022-10-16T03:39:01;21.50;;;14.17;;
18338;SDS011;9295;44.484;11.240;2022-10-16T03:41:29;22.77;;;16.53;;
18338;SDS011;9295;44.484;11.240;2022-10-16T03:43:58;28.70;;;16.40;;
18338;SDS011;9295;44.484;11.240;2022-10-16T03:46:26;26.70;;;16.60;;
18338;SDS011;9295;44.484;11.240;2022-10-16T03:48:55;24.00;;;16.70;;
18338;SDS011;9295;44.484;11.240;2022-10-16T03:51:23;23.07;;;16.70;;
18338;SDS011;9295;44.484;11.240;2022-10-16T03:53:53;24.37;;;15.77;;
18338;SDS011;9295;44.484;11.240;2022-10-16T03:56:21;25.53;;;17.20;;
18338;SDS011;9295;44.484;11.240;2022-10-16T03:58:50;28.27;;;16.10;;
18338;SDS011;9295;44.484;11.240;2022-10-16T04:01:18;21.67;;;15.73;;
18338;SDS011;9295;44.484;11.240;2022-10-16T04:03:47;23.30;;;15.40;;
18338;SDS011;9295;44.484;11.240;2022-10-16T04:06:15;20.47;;;13.73;;
18338;SDS011;9295;44.484;11.240;2022-10-16T04:08:44;17.87;;;13.90;;
18338;SDS011;9295;44.484;11.240;2022-10-16T04:11:13;22.63;;;14.40;;
18338;SDS011;9295;44.484;11.240;2022-10-16T04:13:42;20.57;;;13.10;;
18338;SDS011;9295;44.484;11.240;2022-10-16T04:16:10;19.33;;;13.30;;
18338;SDS011;9295;44.484;11.240;2022-10-16T04:18:39;28.87;;;15.80;;
18338;SDS011;9295;44.484;11.240;2022-10-16T04:21:07;28.47;;;15.70;;
18338;SDS011;9295;44.484;11.240;2022-10-16T04:23:36;22.97;;;16.00;;
18338;SDS011;9295;44.484;11.240;2022-10-16T04:26:05;25.47;;;16.43;;
18338;SDS011;9295;44.484;11.240;2022-10-16T04:28:35;26.20;;;17.33;;
18338;SDS011;9295;44.484;11.240;2022-10-16T04:31:03;29.67;;;17.57;;
18338;SDS011;9295;44.484;11.240;2022-10-16T04:33:32;32.70;;;17.90;;
18338;SDS011;9295;44.484;11.240;2022-10-16T04:36:01;27.13;;;17.63;;
18338;SDS011;9295;44.484;11.240;2022-10-16T04:38:30;28.80;;;18.20;;
18338;SDS011;9295;44.484;11.240;2022-10-16T04:40:59;25.57;;;17.63;;
18338;SDS011;9295;44.484;11.240;2022-10-16T04:43:27;33.40;;;18.40;;
18338;SDS011;9295;44.484;11.240;2022-10-16T04:45:57;28.50;;;18.30;;
18338;SDS011;9295;44.484;11.240;2022-10-16T04:48:25;30.87;;;20.27;;
18338;SDS011;9295;44.484;11.240;2022-10-16T04:50:54;29.47;;;18.50;;
18338;SDS011;9295;44.484;11.240;2022-10-16T04:53:22;39.00;;;23.97;;
18338;SDS011;9295;44.484;11.240;2022-10-16T04:55:51;28.13;;;19.17;;
18338;SDS011;9295;44.484;11.240;2022-10-16T04:58:20;25.57;;;17.57;;
18338;SDS011;9295;44.484;11.240;2022-10-16T05:00:48;27.63;;;17.60;;
18338;SDS011;9295;44.484;11.240;2022-10-16T05:03:18;27.63;;;19.50;;
18338;SDS011;9295;44.484;11.240;2022-10-16T05:05:46;32.30;;;18.90;;
18338;SDS011;9295;44.484;11.240;2022-10-16T05:08:15;26.83;;;18.23;;
18338;SDS011;9295;44.484;11.240;2022-10-16T05:10:44;25.37;;;17.93;;
18338;SDS011;9295;44.484;11.240;2022-10-16T05:13:12;26.90;;;17.80;;
18338;SDS011;9295;44.484;11.240;2022-10-16T05:15:41;32.83;;;17.93;;
18338;SDS011;9295;44.484;11.240;2022-10-16T05:18:09;30.27;;;17.30;;
18338;SDS011;9295;44.484;11.240;2022-10-16T05:20:39;23.27;;;15.80;;
18338;SDS011;9295;44.484;11.240;2022-10-16T05:23:08;27.63;;;17.90;;
18338;SDS011;9295;44.484;11.240;2022-10-16T05:25:39;31.50;;;17.97;;
18338;SDS011;9295;44.484;11.240;2022-10-16T05:28:07;32.20;;;19.80;;
18338;SDS011;9295;44.484;11.240;2022-10-16T05:30:36;27.43;;;18.90;;
18338;SDS011;9295;44.484;11.240;2022-10-16T05:33:05;26.40;;;18.40;;
18338;SDS011;9295;44.484;11.240;2022-10-16T05:35:34;27.37;;;18.77;;
18338;SDS011;9295;44.484;11.240;2022-10-16T05:38:03;30.30;;;19.90;;
18338;SDS011;9295;44.484;11.240;2022-10-16T05:40:32;27.00;;;18.63;;
18338;SDS011;9295;44.484;11.240;2022-10-16T05:43:00;46.17;;;19.57;;
18338;SDS011;9295;44.484;11.240;2022-10-16T05:45:29;29.37;;;18.70;;
18338;SDS011;9295;44.484;11.240;2022-10-16T05:47:57;29.50;;;18.40;;
18338;SDS011;9295;44.484;11.240;2022-10-16T05:50:26;34.10;;;18.67;;
18338;SDS011;9295;44.484;11.240;2022-10-16T05:52:55;33.80;;;20.70;;
18338;SDS011;9295;44.484;11.240;2022-10-16T05:55:26;30.00;;;20.30;;
18338;SDS011;9295;44.484;11.240;2022-10-16T05:57:54;37.30;;;20.30;;
18338;SDS011;9295;44.484;11.240;2022-10-16T06:00:23;31.20;;;19.83;;
18338;SDS011;9295;44.484;11.240;2022-10-16T06:02:51;33.33;;;19.63;;
18338;SDS011;9295;44.484;11.240;2022-10-16T06:05:19;35.83;;;19.93;;
18338;SDS011;9295;44.484;11.240;2022-10-16T06:07:48;27.57;;;18.60;;
18338;SDS011;9295;44.484;11.240;2022-10-16T06:10:16;33.33;;;18.43;;
18338;SDS011;9295;44.484;11.240;2022-10-16T06:12:46;31.07;;;18.50;;
18338;SDS011;9295;44.484;11.240;2022-10-16T06:15:14;28.10;;;17.40;;
18338;SDS011;9295;44.484;11.240;2022-10-16T06:17:43;27.53;;;17.97;;
18338;SDS011;9295;44.484;11.240;2022-10-16T06:20:11;33.63;;;18.07;;
18338;SDS011;9295;44.484;11.240;2022-10-16T06:22:39;28.73;;;18.67;;
18338;SDS011;9295;44.484;11.240;2022-10-16T06:25:08;27.23;;;19.07;;
18338;SDS011;9295;44.484;11.240;2022-10-16T06:27:38;28.87;;;17.23;;
18338;SDS011;9295;44.484;11.240;2022-10-16T06:30:09;26.30;;;17.23;;
18338;SDS011;9295;44.484;11.240;2022-10-16T06:32:38;26.93;;;17.10;;
18338;SDS011;9295;44.484;11.240;2022-10-16T06:35:07;25.30;;;15.90;;
18338;SDS011;9295;44.484;11.240;2022-10-16T06:37:35;22.77;;;14.90;;
18338;SDS011;9295;44.484;11.240;2022-10-16T06:40:05;18.17;;;13.47;;
18338;SDS011;9295;44.484;11.240;2022-10-16T06:42:34;17.00;;;12.07;;
18338;SDS011;9295;44.484;11.240;2022-10-16T06:45:03;18.20;;;12.40;;
18338;SDS011;9295;44.484;11.240;2022-10-16T06:47:33;20.00;;;12.20;;
18338;SDS011;9295;44.484;11.240;2022-10-16T06:50:01;18.20;;;12.77;;
18338;SDS011;9295;44.484;11.240;2022-10-16T06:52:33;19.10;;;11.97;;
18338;SDS011;9295;44.484;11.240;2022-10-16T06:55:02;19.83;;;11.53;;
18338;SDS011;9295;44.484;11.240;2022-10-16T06:57:31;19.97;;;11.33;;
18338;SDS011;9295;44.484;11.240;2022-10-16T06:59:59;18.30;;;11.40;;
18338;SDS011;9295;44.484;11.240;2022-10-16T07:02:28;23.03;;;12.20;;
18338;SDS011;9295;44.484;11.240;2022-10-16T07:04:57;18.43;;;11.83;;
18338;SDS011;9295;44.484;11.240;2022-10-16T07:07:26;16.33;;;12.00;;
18338;SDS011;9295;44.484;11.240;2022-10-16T07:09:54;19.33;;;10.93;;
18338;SDS011;9295;44.484;11.240;2022-10-16T07:12:22;16.77;;;10.70;;
18338;SDS011;9295;44.484;11.240;2022-10-16T07:14:51;19.33;;;12.40;;
18338;SDS011;9295;44.484;11.240;2022-10-16T07:17:21;16.77;;;11.83;;
18338;SDS011;9295;44.484;11.240;2022-10-16T07:19:49;24.87;;;11.80;;
18338;SDS011;9295;44.484;11.240;2022-10-16T07:22:21;16.47;;;10.57;;
18338;SDS011;9295;44.484;11.240;2022-10-16T07:24:50;16.63;;;10.60;;
18338;SDS011;9295;44.484;11.240;2022-10-16T07:27:19;16.03;;;10.00;;
18338;SDS011;9295;44.484;11.240;2022-10-16T07:29:48;17.27;;;10.20;;
18338;SDS011;9295;44.484;11.240;2022-10-16T07:32:17;13.03;;;9.57;;
18338;SDS011;9295;44.484;11.240;2022-10-16T07:34:45;14.70;;;10.77;;
18338;SDS011;9295;44.484;11.240;2022-10-16T07:37:14;14.27;;;9.20;;
18338;SDS011;9295;44.484;11.240;2022-10-16T07:39:44;13.30;;;9.60;;
18338;SDS011;9295;44.484;11.240;2022-10-16T07:42:12;14.80;;;9.30;;
18338;SDS011;9295;44.484;11.240;2022-10-16T07:44:41;14.30;;;9.60;;
18338;SDS011;9295;44.484;11.240;2022-10-16T07:47:09;10.33;;;8.57;;
18338;SDS011;9295;44.484;11.240;2022-10-16T07:49:38;14.30;;;9.53;;
18338;SDS011;9295;44.484;11.240;2022-10-16T07:52:06;17.17;;;9.60;;
18338;SDS011;9295;44.484;11.240;2022-10-16T07:54:34;13.40;;;9.37;;
18338;SDS011;9295;44.484;11.240;2022-10-16T07:57:04;18.20;;;9.33;;
18338;SDS011;9295;44.484;11.240;2022-10-16T07:59:33;14.67;;;9.40;;
18338;SDS011;9295;44.484;11.240;2022-10-16T08:02:01;19.40;;;9.13;;
18338;SDS011;9295;44.484;11.240;2022-10-16T08:04:30;12.70;;;8.30;;
18338;SDS011;9295;44.484;11.240;2022-10-16T08:06:58;20.07;;;9.00;;
18338;SDS011;9295;44.484;11.240;2022-10-16T08:09:27;16.30;;;8.80;;
18338;SDS011;9295;44.484;11.240;2022-10-16T08:11:55;17.13;;;9.10;;
18338;SDS011;9295;44.484;11.240;2022-10-16T08:14:29;14.73;;;9.00;;
18338;SDS011;9295;44.484;11.240;2022-10-16T08:16:57;17.40;;;12.13;;
18338;SDS011;9295;44.484;11.240;2022-10-16T08:19:28;18.40;;;9.20;;
18338;SDS011;9295;44.484;11.240;2022-10-16T08:21:58;20.40;;;8.97;;
18338;SDS011;9295;44.484;11.240;2022-10-16T08:24:26;19.00;;;10.77;;
18338;SDS011;9295;44.484;11.240;2022-10-16T08:26:57;18.33;;;9.77;;
18338;SDS011;9295;44.484;11.240;2022-10-16T08:29:25;23.20;;;11.30;;
18338;SDS011;9295;44.484;11.240;2022-10-16T08:31:55;19.20;;;10.30;;
18338;SDS011;9295;44.484;11.240;2022-10-16T08:34:23;17.97;;;12.83;;
18338;SDS011;9295;44.484;11.240;2022-10-16T08:36:52;17.20;;;11.87;;
18338;SDS011;9295;44.484;11.240;2022-10-16T08:39:21;18.93;;;12.27;;
18338;SDS011;9295;44.484;11.240;2022-10-16T08:42:02;21.40;;;11.57;;
18338;SDS011;9295;44.484;11.240;2022-10-16T08:44:46;19.83;;;12.10;;
18338;SDS011;9295;44.484;11.240;2022-10-16T08:47:43;25.70;;;12.60;;
18338;SDS011;9295;44.484;11.240;2022-10-16T08:50:18;23.60;;;11.50;;
18338;SDS011;9295;44.484;11.240;2022-10-16T08:52:51;19.70;;;10.23;;
18338;SDS011;9295;44.484;11.240;2022-10-16T08:55:28;17.87;;;11.80;;
18338;SDS011;9295;44.484;11.240;2022-10-16T08:57:59;21.33;;;10.90;;
18338;SDS011;9295;44.484;11.240;2022-10-16T09:00:27;18.77;;;11.27;;
18338;SDS011;9295;44.484;11.240;2022-10-16T09:03:03;15.90;;;11.37;;
18338;SDS011;9295;44.484;11.240;2022-10-16T09:05:44;21.13;;;11.30;;
18338;SDS011;9295;44.484;11.240;2022-10-16T09:08:23;17.60;;;10.60;;
18338;SDS011;9295;44.484;11.240;2022-10-16T09:10:57;17.13;;;10.83;;
18338;SDS011;9295;44.484;11.240;2022-10-16T09:13:33;17.20;;;10.73;;
18338;SDS011;9295;44.484;11.240;2022-10-16T09:16:13;17.33;;;10.00;;
18338;SDS011;9295;44.484;11.240;2022-10-16T09:18:51;18.00;;;11.80;;
18338;SDS011;9295;44.484;11.240;2022-10-16T09:21:26;18.83;;;11.17;;
18338;SDS011;9295;44.484;11.240;2022-10-16T09:23:58;15.73;;;10.83;;
18338;SDS011;9295;44.484;11.240;2022-10-16T09:26:32;23.73;;;11.07;;
18338;SDS011;9295;44.484;11.240;2022-10-16T09:29:01;19.33;;;11.20;;
18338;SDS011;9295;44.484;11.240;2022-10-16T09:31:30;20.80;;;11.60;;
18338;SDS011;9295;44.484;11.240;2022-10-16T09:34:00;23.70;;;11.53;;
18338;SDS011;9295;44.484;11.240;2022-10-16T09:36:34;18.23;;;11.17;;
18338;SDS011;9295;44.484;11.240;2022-10-16T09:39:08;23.20;;;13.43;;
18338;SDS011;9295;44.484;11.240;2022-10-16T09:41:38;20.53;;;11.80;;
18338;SDS011;9295;44.484;11.240;2022-10-16T09:44:15;19.33;;;11.73;;
18338;SDS011;9295;44.484;11.240;2022-10-16T09:46:48;21.27;;;12.80;;
18338;SDS011;9295;44.484;11.240;2022-10-16T09:49:22;20.63;;;12.27;;
18338;SDS011;9295;44.484;11.240;2022-10-16T09:52:02;20.60;;;13.00;;
18338;SDS011;9295;44.484;11.240;2022-10-16T09:54:31;18.43;;;12.13;;
18338;SDS011;9295;44.484;11.240;2022-10-16T09:57:06;18.43;;;12.00;;
18338;SDS011;9295;44.484;11.240;2022-10-16T09:59:45;19.23;;;11.80;;
18338;SDS011;9295;44.484;11.240;2022-10-16T10:02:15;21.43;;;13.00;;
18338;SDS011;9295;44.484;11.240;2022-10-16T10:04:49;20.77;;;12.97;;
18338;SDS011;9295;44.484;11.240;2022-10-16T10:07:23;21.57;;;12.00;;
18338;SDS011;9295;44.484;11.240;2022-10-16T10:09:55;20.83;;;12.00;;
18338;SDS011;9295;44.484;11.240;2022-10-16T10:12:25;21.03;;;12.50;;
18338;SDS011;9295;44.484;11.240;2022-10-16T10:14:56;23.07;;;11.87;;
18338;SDS011;9295;44.484;11.240;2022-10-16T10:17:26;18.83;;;12.70;;
18338;SDS011;9295;44.484;11.240;2022-10-16T10:19:57;23.17;;;13.60;;
18338;SDS011;9295;44.484;11.240;2022-10-16T10:22:31;28.30;;;14.10;;
18338;SDS011;9295;44.484;11.240;2022-10-16T10:25:24;19.13;;;11.57;;
18338;SDS011;9295;44.484;11.240;2022-10-16T10:28:21;20.33;;;11.60;;
18338;SDS011;9295;44.484;11.240;2022-10-16T10:31:00;23.80;;;12.57;;
18338;SDS011;9295;44.484;11.240;2022-10-16T10:33:39;20.93;;;12.00;;
18338;SDS011;9295;44.484;11.240;2022-10-16T10:36:16;23.37;;;11.47;;
18338;SDS011;9295;44.484;11.240;2022-10-16T10:38:54;17.50;;;10.83;;
18338;SDS011;9295;44.484;11.240;2022-10-16T10:44:37;19.47;;;12.03;;
18338;SDS011;9295;44.484;11.240;2022-10-16T10:47:26;24.97;;;13.53;;
18338;SDS011;9295;44.484;11.240;2022-10-16T10:50:02;22.27;;;12.63;;
18338;SDS011;9295;44.484;11.240;2022-10-16T10:52:43;18.80;;;12.43;;
18338;SDS011;9295;44.484;11.240;2022-10-16T10:55:23;20.30;;;12.57;;
18338;SDS011;9295;44.484;11.240;2022-10-16T10:58:15;19.57;;;12.70;;
18338;SDS011;9295;44.484;11.240;2022-10-16T11:01:04;17.77;;;12.00;;
18338;SDS011;9295;44.484;11.240;2022-10-16T11:03:46;17.27;;;12.30;;
18338;SDS011;9295;44.484;11.240;2022-10-16T11:06:33;22.50;;;12.30;;
18338;SDS011;9295;44.484;11.240;2022-10-16T11:09:13;21.73;;;10.70;;
18338;SDS011;9295;44.484;11.240;2022-10-16T11:11:47;17.50;;;11.13;;
18338;SDS011;9295;44.484;11.240;2022-10-16T11:14:20;17.43;;;11.30;;
18338;SDS011;9295;44.484;11.240;2022-10-16T11:16:54;18.63;;;11.83;;
18338;SDS011;9295;44.484;11.240;2022-10-16T11:19:31;20.57;;;12.57;;
18338;SDS011;9295;44.484;11.240;2022-10-16T11:22:09;17.43;;;10.37;;
18338;SDS011;9295;44.484;11.240;2022-10-16T11:24:45;20.87;;;12.07;;
18338;SDS011;9295;44.484;11.240;2022-10-16T11:27:17;18.70;;;11.20;;
18338;SDS011;9295;44.484;11.240;2022-10-16T11:29:49;22.37;;;11.17;;
18338;SDS011;9295;44.484;11.240;2022-10-16T11:32:22;17.33;;;10.17;;
18338;SDS011;9295;44.484;11.240;2022-10-16T11:34:56;19.20;;;11.33;;
18338;SDS011;9295;44.484;11.240;2022-10-16T11:37:28;22.67;;;11.10;;
18338;SDS011;9295;44.484;11.240;2022-10-16T11:40:05;24.37;;;11.07;;
18338;SDS011;9295;44.484;11.240;2022-10-16T11:42:48;16.40;;;11.00;;
18338;SDS011;9295;44.484;11.240;2022-10-16T11:45:24;13.70;;;9.70;;
18338;SDS011;9295;44.484;11.240;2022-10-16T11:48:00;20.37;;;13.23;;
18338;SDS011;9295;44.484;11.240;2022-10-16T11:50:35;18.67;;;11.73;;
18338;SDS011;9295;44.484;11.240;2022-10-16T11:53:11;19.47;;;9.73;;
18338;SDS011;9295;44.484;11.240;2022-10-16T11:55:45;15.47;;;10.33;;
18338;SDS011;9295;44.484;11.240;2022-10-16T11:58:17;18.80;;;10.40;;
18338;SDS011;9295;44.484;11.240;2022-10-16T12:00:55;21.90;;;10.83;;
18338;SDS011;9295;44.484;11.240;2022-10-16T12:03:31;18.80;;;11.43;;
18338;SDS011;9295;44.484;11.240;2022-10-16T12:06:12;22.07;;;11.73;;
18338;SDS011;9295;44.484;11.240;2022-10-16T12:08:48;18.20;;;9.83;;
18338;SDS011;9295;44.484;11.240;2022-10-16T12:11:24;15.40;;;10.20;;
18338;SDS011;9295;44.484;11.240;2022-10-16T12:17:24;15.73;;;9.10;;
18338;SDS011;9295;44.484;11.240;2022-10-16T12:19:58;14.33;;;10.20;;
18338;SDS011;9295;44.484;11.240;2022-10-16T12:22:29;19.37;;;9.90;;
18338;SDS011;9295;44.484;11.240;2022-10-16T12:25:17;15.50;;;9.40;;
18338;SDS011;9295;44.484;11.240;2022-10-16T12:27:55;19.00;;;11.40;;
18338;SDS011;9295;44.484;11.240;2022-10-16T12:30:28;18.53;;;10.93;;
18338;SDS011;9295;44.484;11.240;2022-10-16T12:33:02;18.23;;;10.47;;
18338;SDS011;9295;44.484;11.240;2022-10-16T12:35:33;18.40;;;11.53;;
18338;SDS011;9295;44.484;11.240;2022-10-16T12:38:07;16.20;;;10.70;;
18338;SDS011;9295;44.484;11.240;2022-10-16T12:40:47;19.50;;;10.77;;
18338;SDS011;9295;44.484;11.240;2022-10-16T12:43:28;23.40;;;11.83;;
18338;SDS011;9295;44.484;11.240;2022-10-16T12:46:05;16.30;;;10.23;;
18338;SDS011;9295;44.484;11.240;2022-10-16T12:48:49;21.20;;;9.87;;
18338;SDS011;9295;44.484;11.240;2022-10-16T12:51:34;19.07;;;10.97;;
18338;SDS011;9295;44.484;11.240;2022-10-16T12:54:04;18.83;;;10.17;;
18338;SDS011;9295;44.484;11.240;2022-10-16T12:56:41;22.90;;;10.27;;
18338;SDS011;9295;44.484;11.240;2022-10-16T12:59:23;17.03;;;9.33;;
18338;SDS011;9295;44.484;11.240;2022-10-16T13:05:17;15.27;;;9.60;;
18338;SDS011;9295;44.484;11.240;2022-10-16T13:07:56;20.83;;;9.20;;
18338;SDS011;9295;44.484;11.240;2022-10-16T13:10:39;16.77;;;10.37;;
18338;SDS011;9295;44.484;11.240;2022-10-16T13:13:27;20.90;;;10.93;;
18338;SDS011;9295;44.484;11.240;2022-10-16T13:16:16;21.50;;;10.53;;
18338;SDS011;9295;44.484;11.240;2022-10-16T13:18:56;20.40;;;10.97;;
18338;SDS011;9295;44.484;11.240;2022-10-16T13:21:39;17.27;;;10.30;;
18338;SDS011;9295;44.484;11.240;2022-10-16T13:24:17;18.20;;;9.97;;
18338;SDS011;9295;44.484;11.240;2022-10-16T13:26:55;18.00;;;10.87;;
18338;SDS011;9295;44.484;11.240;2022-10-16T13:29:30;17.83;;;10.80;;
18338;SDS011;9295;44.484;11.240;2022-10-16T13:32:01;15.80;;;9.17;;
18338;SDS011;9295;44.484;11.240;2022-10-16T13:34:43;19.23;;;10.10;;
18338;SDS011;9295;44.484;11.240;2022-10-16T13:37:20;33.03;;;10.63;;
18338;SDS011;9295;44.484;11.240;2022-10-16T13:39:50;16.00;;;9.30;;
18338;SDS011;9295;44.484;11.240;2022-10-16T13:42:29;15.27;;;9.03;;
18338;SDS011;9295;44.484;11.240;2022-10-16T13:44:58;19.97;;;9.90;;
18338;SDS011;9295;44.484;11.240;2022-10-16T13:47:28;14.43;;;9.97;;
18338;SDS011;9295;44.484;11.240;2022-10-16T13:50:00;20.30;;;9.10;;
18338;SDS011;9295;44.484;11.240;2022-10-16T13:52:29;23.87;;;10.30;;
18338;SDS011;9295;44.484;11.240;2022-10-16T13:54:58;15.83;;;10.10;;
18338;SDS011;9295;44.484;11.240;2022-10-16T13:57:28;14.47;;;9.30;;
18338;SDS011;9295;44.484;11.240;2022-10-16T13:59:57;18.27;;;10.00;;
18338;SDS011;9295;44.484;11.240;2022-10-16T14:02:28;22.17;;;10.30;;
18338;SDS011;9295;44.484;11.240;2022-10-16T14:05:03;16.40;;;9.17;;
18338;SDS011;9295;44.484;11.240;2022-10-16T14:07:36;19.70;;;9.43;;
18338;SDS011;9295;44.484;11.240;2022-10-16T14:10:07;16.50;;;9.03;;
18338;SDS011;9295;44.484;11.240;2022-10-16T14:12:54;23.17;;;9.70;;
18338;SDS011;9295;44.484;11.240;2022-10-16T14:15:27;20.20;;;9.10;;
18338;SDS011;9295;44.484;11.240;2022-10-16T14:17:58;14.67;;;7.83;;
18338;SDS011;9295;44.484;11.240;2022-10-16T14:20:28;17.03;;;8.83;;
18338;SDS011;9295;44.484;11.240;2022-10-16T14:22:58;17.43;;;8.73;;
18338;SDS011;9295;44.484;11.240;2022-10-16T14:25:29;12.03;;;8.03;;
18338;SDS011;9295;44.484;11.240;2022-10-16T14:28:02;13.63;;;9.47;;
18338;SDS011;9295;44.484;11.240;2022-10-16T14:30:33;19.33;;;8.27;;
18338;SDS011;9295;44.484;11.240;2022-10-16T14:33:05;13.77;;;9.53;;
18338;SDS011;9295;44.484;11.240;2022-10-16T14:35:58;13.20;;;8.27;;
18338;SDS011;9295;44.484;11.240;2022-10-16T14:38:29;13.87;;;8.57;;
18338;SDS011;9295;44.484;11.240;2022-10-16T14:40:58;14.00;;;8.33;;
18338;SDS011;9295;44.484;11.240;2022-10-16T14:43:30;18.83;;;8.83;;
18338;SDS011;9295;44.484;11.240;2022-10-16T14:46:01;14.13;;;8.20;;
18338;SDS011;9295;44.484;11.240;2022-10-16T14:48:41;13.63;;;8.60;;
18338;SDS011;9295;44.484;11.240;2022-10-16T14:51:12;23.20;;;8.00;;
18338;SDS011;9295;44.484;11.240;2022-10-16T14:53:41;13.00;;;9.37;;
18338;SDS011;9295;44.484;11.240;2022-10-16T14:56:14;15.47;;;8.13;;
18338;SDS011;9295;44.484;11.240;2022-10-16T14:58:45;13.60;;;9.30;;
18338;SDS011;9295;44.484;11.240;2022-10-16T15:01:14;14.60;;;9.20;;
18338;SDS011;9295;44.484;11.240;2022-10-16T15:03:44;12.20;;;8.10;;
18338;SDS011;9295;44.484;11.240;2022-10-16T15:06:13;11.77;;;7.90;;
18338;SDS011;9295;44.484;11.240;2022-10-16T15:08:43;13.47;;;8.33;;
18338;SDS011;9295;44.484;11.240;2022-10-16T15:11:12;16.13;;;8.17;;